Time;durP1;ratioP1;P1;durP2;ratioP2;P2;SDS_P1;SDS_P2;PMS_P1;PMS_P2;Temp;Humidity;BMP_temperature;BMP_pressure;BME280_temperature;BME280_humidity;BME280_pressure;Samples;Min_cycle;Max_cycle;Signal;HPM_P1;HPM_P2
2022/03/18 00:01:49;;;;;;;2.80;1.58;;;5.90;99.90;;;;;;5023153;28;20136;-58
2022/03/18 00:04:16;;;;;;;3.05;1.40;;;5.90;99.90;;;;;;5021140;28;20077;-58
2022/03/18 00:06:43;;;;;;;3.47;1.63;;;5.90;99.90;;;;;;5024551;28;20045;-59
2022/03/18 00:09:10;;;;;;;2.42;1.52;;;5.90;99.90;;;;;;5023552;28;20456;-59
2022/03/18 00:11:36;;;;;;;2.17;1.42;;;5.90;99.90;;;;;;5025555;28;20132;-59
2022/03/18 00:14:03;;;;;;;4.00;2.13;;;5.90;99.90;;;;;;5025148;28;20586;-59
2022/03/18 00:16:30;;;;;;;2.33;1.35;;;5.90;99.90;;;;;;5025331;28;20080;-59
2022/03/18 00:19:00;;;;;;;2.58;1.80;;;5.80;99.90;;;;;;5023408;28;20047;-58
2022/03/18 00:21:27;;;;;;;2.65;1.30;;;5.80;99.90;;;;;;5024552;28;20892;-59
2022/03/18 00:23:54;;;;;;;2.80;1.42;;;5.70;99.90;;;;;;5024270;28;20045;-59
2022/03/18 00:26:21;;;;;;;3.67;2.00;;;5.70;99.90;;;;;;5025178;28;20076;-58
2022/03/18 00:28:47;;;;;;;2.58;1.70;;;5.70;99.90;;;;;;5024522;28;20466;-58
2022/03/18 00:31:14;;;;;;;3.55;1.60;;;5.70;99.90;;;;;;5024634;28;20132;-59
2022/03/18 00:33:41;;;;;;;2.42;1.50;;;5.60;99.90;;;;;;5022589;28;20061;-59
2022/03/18 00:36:07;;;;;;;3.78;1.70;;;5.60;99.90;;;;;;5024615;28;20484;-59
2022/03/18 00:38:34;;;;;;;2.03;1.35;;;5.50;99.90;;;;;;5023911;28;20168;-59
2022/03/18 00:41:01;;;;;;;2.97;1.70;;;5.50;99.90;;;;;;5024383;28;20132;-58
2022/03/18 00:43:28;;;;;;;2.60;1.48;;;5.50;99.90;;;;;;5024187;28;20128;-58
2022/03/18 00:45:55;;;;;;;2.60;1.70;;;5.50;99.90;;;;;;5024798;28;20385;-59
2022/03/18 00:53:53;;;;;;;3.08;1.33;;;5.40;99.90;;;;;;5022479;28;20124;-58
2022/03/18 00:56:19;;;;;;;2.97;1.40;;;5.40;99.90;;;;;;5024565;28;20095;-59
2022/03/18 00:58:46;;;;;;;2.55;1.48;;;5.50;99.90;;;;;;5023942;28;20493;-59
2022/03/18 01:01:13;;;;;;;2.60;1.50;;;5.40;99.90;;;;;;5024504;28;20057;-58
2022/03/18 01:03:40;;;;;;;2.40;1.70;;;5.40;99.90;;;;;;5005283;28;20053;-59
2022/03/18 01:06:06;;;;;;;3.03;1.75;;;5.40;99.90;;;;;;5023966;28;20551;-58
2022/03/18 01:08:33;;;;;;;2.67;1.77;;;5.30;99.90;;;;;;5023395;28;20540;-58
2022/03/18 01:11:01;;;;;;;3.20;2.13;;;5.30;99.90;;;;;;5024538;28;20180;-59
2022/03/18 01:13:27;;;;;;;2.28;1.38;;;5.30;99.90;;;;;;5023640;28;20128;-59
2022/03/18 01:15:54;;;;;;;2.60;1.83;;;5.20;99.90;;;;;;5024215;28;20420;-59
2022/03/18 01:18:21;;;;;;;3.92;1.73;;;5.20;99.90;;;;;;5023082;28;20092;-59
2022/03/18 01:20:48;;;;;;;4.47;2.00;;;5.20;99.90;;;;;;5023443;28;20567;-59
2022/03/18 01:23:14;;;;;;;3.15;1.98;;;5.20;99.90;;;;;;5023697;28;20123;-59
2022/03/18 01:25:41;;;;;;;3.60;1.58;;;5.20;99.90;;;;;;5023819;28;20470;-59
2022/03/18 01:28:08;;;;;;;5.63;2.10;;;5.20;99.90;;;;;;5023834;28;20124;-59
2022/03/18 01:30:35;;;;;;;2.90;1.80;;;5.10;99.90;;;;;;5023948;28;20152;-58
2022/03/18 01:33:02;;;;;;;3.53;1.77;;;5.10;99.90;;;;;;5020664;28;20775;-59
2022/03/18 01:35:29;;;;;;;3.33;1.70;;;5.20;99.90;;;;;;5022078;28;20143;-59
2022/03/18 01:37:55;;;;;;;2.30;1.33;;;5.10;99.90;;;;;;5023382;28;20077;-59
2022/03/18 01:40:22;;;;;;;3.67;2.20;;;5.10;99.90;;;;;;5023578;28;20049;-58
2022/03/18 01:42:49;;;;;;;3.38;1.80;;;5.00;99.90;;;;;;5022519;28;20054;-59
2022/03/18 01:45:16;;;;;;;2.95;1.58;;;5.00;99.90;;;;;;5023351;28;20160;-59
2022/03/18 01:47:43;;;;;;;3.72;1.70;;;5.00;99.90;;;;;;5022788;28;20141;-59
2022/03/18 01:50:11;;;;;;;2.72;1.42;;;5.00;99.90;;;;;;5023066;28;20136;-58
2022/03/18 01:52:38;;;;;;;3.05;1.80;;;5.00;99.90;;;;;;5021725;28;20080;-58
2022/03/18 01:55:05;;;;;;;3.20;1.92;;;5.00;99.90;;;;;;5023234;28;20499;-59
2022/03/18 01:57:32;;;;;;;2.05;1.17;;;4.90;99.90;;;;;;5023663;28;20457;-58
2022/03/18 01:59:59;;;;;;;2.33;1.60;;;4.90;99.90;;;;;;5022492;28;20136;-59
2022/03/18 02:02:26;;;;;;;3.08;1.58;;;4.90;99.90;;;;;;5022354;28;20064;-59
2022/03/18 02:04:53;;;;;;;3.47;1.83;;;4.90;99.90;;;;;;5021329;28;20049;-59
2022/03/18 02:07:20;;;;;;;2.58;1.70;;;4.90;99.90;;;;;;5022721;28;20060;-59
2022/03/18 02:09:46;;;;;;;3.40;1.80;;;4.80;99.90;;;;;;5023626;28;20061;-58
2022/03/18 02:12:13;;;;;;;3.13;1.50;;;4.80;99.90;;;;;;5023771;28;20108;-59
2022/03/18 02:14:42;;;;;;;3.92;1.40;;;4.80;99.90;;;;;;5015277;28;20101;-59
2022/03/18 02:17:11;;;;;;;3.30;1.40;;;4.80;99.90;;;;;;5003379;28;20141;-58
2022/03/18 02:19:38;;;;;;;3.63;1.50;;;4.80;99.90;;;;;;5003357;28;20472;-59
2022/03/18 02:22:10;;;;;;;2.95;1.60;;;4.70;99.90;;;;;;5002483;28;20165;-58
2022/03/18 02:24:38;;;;;;;3.65;1.60;;;4.70;99.90;;;;;;5002232;28;20133;-59
2022/03/18 02:27:05;;;;;;;2.35;1.55;;;4.70;99.90;;;;;;5001914;28;20104;-59
2022/03/18 02:29:32;;;;;;;3.63;1.80;;;4.60;99.90;;;;;;5003236;28;20133;-59
2022/03/18 02:31:59;;;;;;;2.30;1.63;;;4.50;99.90;;;;;;5008384;28;20145;-59
2022/03/18 02:34:29;;;;;;;2.30;1.60;;;4.60;99.90;;;;;;5017883;28;20124;-58
2022/03/18 02:36:56;;;;;;;2.83;1.60;;;4.50;99.90;;;;;;5023190;28;20128;-59
2022/03/18 02:39:23;;;;;;;2.95;1.65;;;4.50;99.90;;;;;;5022658;28;20133;-58
2022/03/18 02:41:49;;;;;;;2.95;1.63;;;4.50;99.90;;;;;;5015600;28;20480;-59
2022/03/18 02:44:16;;;;;;;2.38;1.63;;;4.50;99.90;;;;;;5002630;28;20092;-59
2022/03/18 02:46:43;;;;;;;3.55;1.40;;;4.40;99.90;;;;;;5006909;28;20437;-58
2022/03/18 02:49:10;;;;;;;3.55;1.73;;;4.40;99.90;;;;;;5006236;28;20082;-58
2022/03/18 02:51:37;;;;;;;3.60;1.60;;;4.50;99.90;;;;;;5007307;28;20136;-59
2022/03/18 02:54:07;;;;;;;3.13;1.80;;;4.50;99.90;;;;;;5006856;28;20515;-58
2022/03/18 02:56:34;;;;;;;4.28;1.95;;;4.40;99.90;;;;;;5007711;28;20130;-58
2022/03/18 02:59:01;;;;;;;2.47;1.30;;;4.50;99.90;;;;;;5007543;28;20156;-58
2022/03/18 03:01:28;;;;;;;3.15;1.60;;;4.40;99.90;;;;;;5006794;28;20137;-58
2022/03/18 03:03:55;;;;;;;3.75;2.00;;;4.40;99.90;;;;;;5004031;28;20077;-59
2022/03/18 03:09:07;;;;;;;3.08;2.10;;;4.30;99.90;;;;;;5007494;28;20153;-58
2022/03/18 03:11:34;;;;;;;4.78;1.88;;;4.30;99.90;;;;;;5007358;28;20145;-58
2022/03/18 03:14:01;;;;;;;3.35;2.38;;;4.30;99.90;;;;;;4989161;28;20081;-58
2022/03/18 03:16:28;;;;;;;3.03;1.80;;;4.30;99.90;;;;;;5007406;28;20095;-59
2022/03/18 03:18:55;;;;;;;2.88;1.60;;;4.30;99.90;;;;;;5005950;28;20052;-58
2022/03/18 03:21:21;;;;;;;3.45;1.60;;;4.30;99.90;;;;;;5020874;28;20049;-58
2022/03/18 03:23:48;;;;;;;3.75;1.88;;;4.20;99.90;;;;;;5023527;28;20451;-59
2022/03/18 03:26:15;;;;;;;4.00;1.75;;;4.30;99.90;;;;;;5026969;28;20084;-58
2022/03/18 03:28:42;;;;;;;2.85;1.50;;;4.20;99.90;;;;;;5025628;28;20088;-58
2022/03/18 03:31:09;;;;;;;2.40;1.35;;;4.20;99.90;;;;;;5024330;28;20095;-60
2022/03/18 03:33:35;;;;;;;4.15;1.90;;;4.20;99.90;;;;;;5023275;28;20804;-58
2022/03/18 03:36:02;;;;;;;2.28;1.52;;;4.20;99.90;;;;;;5024791;28;20038;-58
2022/03/18 03:38:29;;;;;;;3.03;1.42;;;4.10;99.90;;;;;;5022662;28;20544;-59
2022/03/18 03:40:56;;;;;;;2.85;1.63;;;4.10;99.90;;;;;;5026604;28;20449;-59
2022/03/18 03:43:22;;;;;;;3.10;1.30;;;4.10;99.90;;;;;;5025618;28;20163;-58
2022/03/18 03:45:49;;;;;;;2.35;1.40;;;4.10;99.90;;;;;;5026846;28;20081;-58
2022/03/18 03:48:16;;;;;;;2.60;1.50;;;4.10;99.90;;;;;;5025407;28;20228;-58
2022/03/18 03:50:43;;;;;;;3.28;1.77;;;4.10;99.90;;;;;;5025914;28;20053;-58
2022/03/18 03:53:10;;;;;;;2.78;1.80;;;4.10;99.90;;;;;;5025957;28;20077;-58
2022/03/18 03:55:39;;;;;;;2.95;1.77;;;4.10;99.90;;;;;;5023836;28;20532;-58
2022/03/18 03:58:09;;;;;;;3.08;1.30;;;4.10;99.90;;;;;;5020230;28;20052;-58
2022/03/18 04:00:36;;;;;;;4.70;2.10;;;4.10;99.90;;;;;;5027028;28;20099;-58
2022/03/18 04:03:04;;;;;;;1.80;1.20;;;4.10;99.90;;;;;;5009017;28;20059;-58
2022/03/18 04:05:32;;;;;;;2.17;1.40;;;4.00;99.90;;;;;;5026341;28;20049;-58
2022/03/18 04:07:58;;;;;;;2.65;1.30;;;4.00;99.90;;;;;;5026693;28;20049;-58
2022/03/18 04:10:25;;;;;;;2.55;1.58;;;4.00;99.90;;;;;;5026575;28;20107;-58
2022/03/18 04:12:53;;;;;;;2.45;1.30;;;4.00;99.90;;;;;;5026897;28;20153;-59
2022/03/18 04:15:19;;;;;;;1.55;1.08;;;4.00;99.90;;;;;;5025884;28;20421;-58
2022/03/18 04:17:47;;;;;;;3.17;1.55;;;4.00;99.90;;;;;;5025289;28;20107;-58
2022/03/18 04:20:18;;;;;;;1.88;1.20;;;4.00;99.90;;;;;;5024845;28;20049;-58
2022/03/18 04:22:45;;;;;;;3.63;1.25;;;4.00;99.90;;;;;;5026818;28;20077;-59
2022/03/18 04:25:12;;;;;;;2.15;1.45;;;4.00;99.90;;;;;;5026420;28;20079;-60
2022/03/18 04:27:39;;;;;;;1.50;1.17;;;4.00;99.90;;;;;;5027361;28;20132;-58
2022/03/18 04:30:07;;;;;;;1.40;1.10;;;3.90;99.90;;;;;;5026554;28;20084;-58
2022/03/18 04:32:34;;;;;;;1.98;1.10;;;3.90;99.90;;;;;;5024182;28;20143;-57
2022/03/18 04:35:01;;;;;;;2.58;1.60;;;3.90;99.90;;;;;;5009956;28;20088;-59
2022/03/18 04:37:28;;;;;;;2.13;1.02;;;3.90;99.90;;;;;;5006905;28;20637;-58
2022/03/18 04:39:55;;;;;;;2.42;1.52;;;3.90;99.90;;;;;;5006595;28;20081;-59
2022/03/18 04:42:21;;;;;;;1.77;1.00;;;3.90;99.90;;;;;;5006916;28;20491;-58
2022/03/18 04:44:48;;;;;;;2.22;1.17;;;3.80;99.90;;;;;;5006630;28;20041;-58
2022/03/18 04:47:15;;;;;;;1.92;1.20;;;3.80;99.90;;;;;;5006660;28;20501;-57
2022/03/18 04:49:42;;;;;;;2.25;1.30;;;3.80;99.90;;;;;;5003845;28;20121;-58
2022/03/18 04:52:08;;;;;;;2.17;1.55;;;3.80;99.90;;;;;;5006378;28;20054;-58
2022/03/18 04:54:35;;;;;;;2.47;1.30;;;3.80;99.90;;;;;;5005578;28;20492;-58
2022/03/18 04:57:20;;;;;;;3.25;1.30;;;3.80;99.90;;;;;;5006738;28;20048;-58
2022/03/18 04:59:48;;;;;;;2.55;1.13;;;3.80;99.90;;;;;;5006573;28;20050;-58
2022/03/18 05:02:15;;;;;;;2.75;1.20;;;3.80;99.90;;;;;;5006220;28;20100;-58
2022/03/18 05:04:43;;;;;;;2.00;1.33;;;3.70;99.90;;;;;;5004980;28;20505;-58
2022/03/18 05:07:11;;;;;;;2.90;1.50;;;3.70;99.90;;;;;;5006721;28;20073;-58
2022/03/18 05:09:39;;;;;;;1.48;0.95;;;3.70;99.90;;;;;;5005560;28;20062;-59
2022/03/18 05:12:10;;;;;;;2.30;1.30;;;3.70;99.90;;;;;;5005298;28;20112;-58
2022/03/18 05:14:38;;;;;;;2.05;1.08;;;3.60;99.90;;;;;;5004318;28;20098;-59
2022/03/18 05:17:05;;;;;;;1.52;1.02;;;3.60;99.90;;;;;;5006493;28;20236;-58
2022/03/18 05:19:32;;;;;;;2.15;1.30;;;3.60;99.90;;;;;;5003640;28;20094;-58
2022/03/18 05:21:59;;;;;;;3.22;1.40;;;3.50;99.90;;;;;;5004406;28;20167;-58
2022/03/18 05:24:26;;;;;;;1.38;0.93;;;3.50;99.90;;;;;;5004236;28;20780;-58
2022/03/18 05:26:56;;;;;;;2.75;1.38;;;3.50;99.90;;;;;;5006325;28;20108;-58
2022/03/18 05:29:25;;;;;;;3.88;1.50;;;3.50;99.90;;;;;;5006260;28;20042;-58
2022/03/18 05:31:53;;;;;;;4.13;1.77;;;3.40;99.90;;;;;;5004591;28;20050;-58
2022/03/18 05:34:19;;;;;;;2.13;1.20;;;3.40;99.90;;;;;;5014351;28;20049;-58
2022/03/18 05:36:46;;;;;;;2.47;1.00;;;3.40;99.90;;;;;;5025792;28;20073;-58
2022/03/18 05:39:13;;;;;;;2.50;1.30;;;3.40;99.90;;;;;;5007488;28;20604;-58
2022/03/18 05:41:43;;;;;;;2.67;1.52;;;3.40;99.90;;;;;;5025521;28;20540;-58
2022/03/18 05:44:10;;;;;;;2.38;1.30;;;3.40;99.90;;;;;;5024958;28;20049;-58
2022/03/18 05:46:41;;;;;;;1.60;1.15;;;3.40;99.90;;;;;;5026058;28;20054;-59
2022/03/18 05:49:08;;;;;;;2.85;1.60;;;3.40;99.90;;;;;;5012365;28;20069;-58
2022/03/18 05:51:35;;;;;;;2.35;1.40;;;3.40;99.90;;;;;;5003565;28;20049;-60
2022/03/18 05:54:01;;;;;;;3.05;1.33;;;3.40;99.90;;;;;;5004184;28;20054;-58
2022/03/18 05:59:15;;;;;;;3.15;1.52;;;3.40;99.90;;;;;;5003478;28;20122;-58
2022/03/18 06:01:43;;;;;;;1.88;1.30;;;3.40;99.90;;;;;;5003895;28;20185;-58
2022/03/18 06:04:11;;;;;;;2.15;1.40;;;3.40;99.90;;;;;;5000936;28;20042;-62
2022/03/18 06:06:38;;;;;;;2.90;1.90;;;3.30;99.90;;;;;;5000793;28;20080;-59
2022/03/18 06:11:51;;;;;;;3.10;1.35;;;3.30;99.90;;;;;;5010357;28;20130;-59
2022/03/18 06:14:19;;;;;;;2.90;1.35;;;3.40;99.90;;;;;;5015029;28;20611;-58
2022/03/18 06:16:47;;;;;;;2.15;1.20;;;3.40;99.90;;;;;;5021589;28;20081;-58
2022/03/18 06:19:16;;;;;;;2.35;1.48;;;3.40;99.90;;;;;;5013707;28;20132;-58
2022/03/18 06:21:43;;;;;;;2.42;1.30;;;3.40;99.90;;;;;;5012538;28;20215;-58
2022/03/18 06:24:10;;;;;;;2.33;1.40;;;3.40;99.90;;;;;;5012461;28;20168;-58
2022/03/18 06:26:37;;;;;;;2.58;1.33;;;3.40;99.90;;;;;;5012383;28;20054;-58
2022/03/18 06:29:04;;;;;;;3.22;1.92;;;3.40;99.90;;;;;;5015332;28;20096;-58
2022/03/18 06:31:31;;;;;;;2.45;1.38;;;3.40;99.90;;;;;;5015017;28;20074;-58
2022/03/18 06:33:58;;;;;;;1.55;1.23;;;3.40;99.90;;;;;;5013076;28;20168;-57
2022/03/18 06:36:25;;;;;;;3.13;1.80;;;3.40;99.90;;;;;;5012857;28;20499;-59
2022/03/18 06:38:52;;;;;;;2.00;1.40;;;3.40;99.90;;;;;;5014550;28;20088;-59
2022/03/18 06:41:19;;;;;;;2.17;1.38;;;3.50;99.90;;;;;;5011651;28;20156;-60
2022/03/18 06:43:47;;;;;;;3.70;1.48;;;3.50;99.90;;;;;;5014148;28;20049;-60
2022/03/18 06:46:16;;;;;;;2.53;1.70;;;3.50;99.90;;;;;;5014535;28;20489;-60
2022/03/18 06:48:43;;;;;;;2.20;1.38;;;3.50;99.90;;;;;;5012161;28;20046;-58
2022/03/18 06:51:10;;;;;;;2.90;1.77;;;3.60;99.90;;;;;;5015962;28;20216;-59
2022/03/18 06:53:37;;;;;;;4.22;1.80;;;3.60;99.90;;;;;;5024834;28;20433;-59
2022/03/18 06:56:06;;;;;;;3.42;1.25;;;3.70;99.90;;;;;;5021489;28;20137;-59
2022/03/18 06:58:34;;;;;;;4.03;1.73;;;3.70;99.90;;;;;;5020374;28;20045;-59
2022/03/18 07:01:01;;;;;;;2.83;1.42;;;3.80;99.90;;;;;;5017340;28;20564;-59
2022/03/18 07:03:28;;;;;;;4.93;1.70;;;3.80;99.90;;;;;;5019630;28;20100;-59
2022/03/18 07:05:54;;;;;;;2.42;1.40;;;3.90;99.90;;;;;;5008899;28;20050;-60
2022/03/18 07:08:21;;;;;;;2.28;1.67;;;3.90;99.90;;;;;;5016500;28;20136;-59
2022/03/18 07:10:48;;;;;;;2.67;1.65;;;4.00;99.90;;;;;;5004465;28;20056;-59
2022/03/18 07:13:15;;;;;;;2.78;1.70;;;4.10;99.90;;;;;;4998741;28;20077;-60
2022/03/18 07:15:42;;;;;;;3.88;1.85;;;4.10;99.90;;;;;;5009698;28;20136;-60
2022/03/18 07:18:09;;;;;;;3.00;1.73;;;4.10;99.90;;;;;;5020440;28;20144;-60
2022/03/18 07:20:36;;;;;;;4.50;2.00;;;4.20;99.90;;;;;;5017507;28;20049;-59
2022/03/18 07:23:11;;;;;;;3.95;1.98;;;4.20;99.90;;;;;;5020906;28;20092;-59
2022/03/18 07:25:41;;;;;;;2.70;1.60;;;4.30;99.90;;;;;;5015535;28;20160;-59
2022/03/18 07:28:09;;;;;;;3.00;1.65;;;4.40;99.90;;;;;;5009873;28;20080;-60
2022/03/18 07:30:36;;;;;;;3.15;1.70;;;4.50;99.90;;;;;;5016873;28;20081;-60
2022/03/18 07:33:03;;;;;;;3.58;1.42;;;4.50;99.90;;;;;;5016322;28;20124;-60
2022/03/18 07:35:31;;;;;;;3.05;1.92;;;4.70;99.90;;;;;;5018579;28;20495;-60
2022/03/18 07:37:57;;;;;;;3.25;1.70;;;4.80;99.90;;;;;;5017426;28;20714;-60
2022/03/18 07:40:24;;;;;;;3.28;1.83;;;4.80;99.90;;;;;;5019096;28;20160;-60
2022/03/18 07:42:53;;;;;;;2.92;1.73;;;5.00;99.90;;;;;;5019550;28;20081;-60
2022/03/18 07:45:26;;;;;;;2.75;1.73;;;5.00;99.90;;;;;;5018547;28;20129;-60
2022/03/18 07:47:53;;;;;;;4.88;1.90;;;5.10;99.90;;;;;;5017699;28;20080;-61
2022/03/18 07:50:21;;;;;;;4.90;2.00;;;5.20;99.90;;;;;;5018914;28;20120;-60
2022/03/18 07:52:56;;;;;;;4.32;2.20;;;5.30;99.90;;;;;;5020168;28;20494;-60
2022/03/18 07:55:24;;;;;;;5.82;1.88;;;5.40;99.90;;;;;;5002732;28;20147;-60
2022/03/18 07:57:51;;;;;;;3.72;1.83;;;5.50;99.90;;;;;;5011689;28;20084;-60
2022/03/18 08:00:18;;;;;;;3.67;2.63;;;5.60;99.90;;;;;;5003713;28;20477;-60
2022/03/18 08:02:47;;;;;;;3.55;2.00;;;5.70;99.90;;;;;;5000390;28;20139;-60
2022/03/18 08:05:14;;;;;;;4.80;2.35;;;5.80;99.90;;;;;;4998018;28;20056;-60
2022/03/18 08:07:41;;;;;;;2.67;1.88;;;5.90;99.90;;;;;;4998889;28;20145;-60
2022/03/18 08:10:08;;;;;;;3.13;2.05;;;6.00;99.90;;;;;;5007830;28;20076;-58
2022/03/18 08:12:36;;;;;;;3.55;1.90;;;6.10;99.90;;;;;;5018697;28;20137;-60
2022/03/18 08:15:04;;;;;;;3.50;1.90;;;6.20;99.90;;;;;;5018304;28;20080;-60
2022/03/18 08:17:31;;;;;;;3.88;2.50;;;6.40;99.90;;;;;;5017217;28;20513;-60
2022/03/18 08:19:58;;;;;;;3.90;2.20;;;6.50;99.90;;;;;;5003501;28;20148;-60
2022/03/18 08:22:25;;;;;;;4.18;2.42;;;6.60;99.90;;;;;;5017404;28;20076;-60
2022/03/18 08:24:52;;;;;;;2.42;1.95;;;6.80;99.90;;;;;;5015391;28;20738;-60
2022/03/18 08:27:19;;;;;;;3.53;2.33;;;6.90;99.90;;;;;;5018475;28;20132;-60
2022/03/18 08:29:46;;;;;;;6.35;3.63;;;7.00;99.90;;;;;;5018672;28;20591;-61
2022/03/18 08:32:15;;;;;;;5.05;2.38;;;7.20;99.90;;;;;;5016754;28;20061;-60
2022/03/18 08:34:42;;;;;;;3.97;2.50;;;7.30;99.90;;;;;;5010817;28;20581;-60
2022/03/18 08:37:10;;;;;;;4.85;2.28;;;7.40;99.90;;;;;;5010925;28;20174;-60
2022/03/18 08:39:37;;;;;;;5.13;2.70;;;7.60;99.90;;;;;;4999520;28;20061;-59
2022/03/18 08:42:04;;;;;;;3.72;2.65;;;7.70;99.90;;;;;;5016291;28;20148;-60
2022/03/18 08:44:31;;;;;;;6.00;2.88;;;7.80;99.90;;;;;;5011651;28;20145;-60
2022/03/18 08:46:58;;;;;;;4.32;2.45;;;7.90;99.90;;;;;;5013859;28;20268;-59
2022/03/18 08:49:24;;;;;;;4.88;2.17;;;8.00;99.90;;;;;;5014468;28;20368;-59
2022/03/18 08:51:51;;;;;;;3.40;2.25;;;8.10;99.90;;;;;;5018697;28;20084;-60
2022/03/18 08:54:21;;;;;;;3.63;2.58;;;8.20;99.90;;;;;;5018066;28;20169;-59
2022/03/18 08:56:48;;;;;;;4.63;2.80;;;8.30;99.90;;;;;;5019515;28;20053;-59
2022/03/18 08:59:15;;;;;;;4.43;2.65;;;8.30;99.90;;;;;;5014800;28;20081;-60
2022/03/18 09:01:42;;;;;;;4.70;2.97;;;8.40;99.90;;;;;;5010735;28;20136;-59
2022/03/18 09:04:09;;;;;;;5.32;2.90;;;8.50;99.90;;;;;;5017336;28;20114;-59
2022/03/18 09:06:36;;;;;;;7.20;3.72;;;8.50;99.90;;;;;;5019068;28;20077;-60
2022/03/18 09:09:05;;;;;;;6.30;3.00;;;8.60;99.90;;;;;;5019200;28;20160;-59
2022/03/18 09:11:31;;;;;;;5.53;3.38;;;8.60;99.90;;;;;;5006008;28;20046;-60
2022/03/18 09:13:58;;;;;;;5.55;2.90;;;8.70;99.90;;;;;;4997921;28;20067;-59
2022/03/18 09:16:25;;;;;;;4.32;3.03;;;8.80;99.90;;;;;;5000072;28;20057;-60
2022/03/18 09:18:59;;;;;;;5.22;2.75;;;8.80;99.90;;;;;;5018771;28;20108;-59
2022/03/18 09:21:26;;;;;;;5.53;2.92;;;8.90;99.90;;;;;;5000070;28;20144;-59
2022/03/18 09:23:53;;;;;;;7.90;3.50;;;9.00;99.90;;;;;;5017702;28;20194;-60
2022/03/18 09:26:20;;;;;;;4.93;3.05;;;9.10;99.90;;;;;;5018581;28;20132;-60
2022/03/18 09:28:47;;;;;;;5.10;3.13;;;9.20;99.90;;;;;;5017996;28;20567;-60
2022/03/18 09:31:13;;;;;;;5.15;3.38;;;9.30;99.90;;;;;;5018964;28;20092;-60
2022/03/18 09:33:43;;;;;;;5.82;3.60;;;9.40;99.90;;;;;;5018103;28;20532;-59
2022/03/18 09:36:10;;;;;;;8.13;3.50;;;9.50;99.90;;;;;;5016830;28;20087;-59
2022/03/18 09:38:37;;;;;;;6.57;3.00;;;9.70;99.90;;;;;;5006684;28;20136;-59
2022/03/18 09:41:06;;;;;;;7.68;3.00;;;9.80;99.90;;;;;;5013652;28;20521;-59
2022/03/18 09:43:36;;;;;;;4.60;2.45;;;9.80;99.90;;;;;;5012847;28;20494;-59
2022/03/18 09:46:04;;;;;;;6.53;3.45;;;9.90;99.90;;;;;;5009043;28;20557;-60
2022/03/18 09:48:51;;;;;;;3.72;2.67;;;9.90;99.90;;;;;;5016232;28;20056;-59
2022/03/18 09:51:18;;;;;;;4.68;2.78;;;10.10;99.90;;;;;;5014959;28;20128;-59
2022/03/18 09:54:06;;;;;;;6.32;3.75;;;10.10;99.90;;;;;;5018308;28;20049;-59
2022/03/18 09:56:34;;;;;;;9.65;3.97;;;10.20;99.90;;;;;;5018145;28;20081;-59
2022/03/18 09:59:01;;;;;;;5.40;3.25;;;10.30;99.90;;;;;;5018512;28;20111;-60
2022/03/18 10:01:28;;;;;;;6.93;3.45;;;10.40;99.90;;;;;;5017764;28;20119;-60
2022/03/18 10:03:57;;;;;;;6.60;3.75;;;10.40;99.90;;;;;;5018077;28;20064;-60
2022/03/18 10:06:27;;;;;;;5.13;3.08;;;10.60;99.90;;;;;;4999228;28;20049;-60
2022/03/18 10:08:55;;;;;;;10.68;3.70;;;10.60;99.90;;;;;;5017994;28;20559;-60
2022/03/18 10:11:23;;;;;;;5.72;3.50;;;10.70;99.90;;;;;;5017894;28;20319;-60
2022/03/18 10:13:51;;;;;;;7.32;3.53;;;10.80;99.90;;;;;;5018362;28;20107;-59
2022/03/18 10:16:37;;;;;;;5.85;2.80;;;10.90;99.90;;;;;;5017707;28;20140;-59
2022/03/18 10:19:11;;;;;;;5.50;2.80;;;11.00;99.90;;;;;;5018104;28;20065;-60
2022/03/18 10:22:02;;;;;;;5.43;2.88;;;11.10;99.90;;;;;;5016490;28;20140;-60
2022/03/18 10:24:34;;;;;;;6.80;3.50;;;11.20;99.90;;;;;;5016217;28;20060;-60
2022/03/18 10:27:20;;;;;;;5.53;3.03;;;11.20;99.90;;;;;;5018546;28;20060;-60
2022/03/18 10:29:54;;;;;;;6.03;2.60;;;11.40;99.90;;;;;;5018327;28;20053;-60
2022/03/18 10:32:26;;;;;;;4.10;2.60;;;11.50;99.90;;;;;;5016473;28;20149;-60
2022/03/18 10:37:48;;;;;;;4.78;2.80;;;11.60;99.90;;;;;;5017765;28;20081;-60
2022/03/18 10:40:17;;;;;;;5.13;2.50;;;11.70;99.90;;;;;;5016653;28;20136;-60
2022/03/18 10:43:03;;;;;;;4.82;2.53;;;11.80;99.90;;;;;;5018639;28;20405;-60
2022/03/18 10:45:30;;;;;;;5.53;3.00;;;11.90;99.90;;;;;;5018073;28;20057;-59
2022/03/18 10:48:11;;;;;;;3.78;2.85;;;12.00;99.90;;;;;;5016328;28;20056;-60
2022/03/18 10:50:40;;;;;;;4.28;2.70;;;12.10;99.90;;;;;;5016872;28;20141;-60
2022/03/18 10:53:11;;;;;;;5.60;2.50;;;12.20;99.90;;;;;;5015928;28;20524;-60
2022/03/18 10:55:40;;;;;;;5.13;2.60;;;12.30;99.90;;;;;;5017749;28;20397;-60
2022/03/18 10:58:08;;;;;;;5.50;3.10;;;12.40;99.90;;;;;;5016306;28;20096;-60
2022/03/18 11:00:36;;;;;;;5.03;3.15;;;12.50;99.90;;;;;;5003760;28;20054;-60
2022/03/18 11:03:03;;;;;;;6.78;3.50;;;12.50;99.90;;;;;;5002937;28;20197;-60
2022/03/18 11:05:41;;;;;;;4.85;3.33;;;12.50;99.90;;;;;;5011409;28;20130;-60
2022/03/18 11:08:12;;;;;;;5.53;3.70;;;12.60;99.90;;;;;;5001492;28;20192;-59
2022/03/18 11:13:30;;;;;;;6.45;3.65;;;12.80;99.90;;;;;;5018673;28;20099;-60
2022/03/18 11:15:57;;;;;;;6.15;3.20;;;12.90;99.90;;;;;;4997345;28;20246;-60
2022/03/18 11:18:25;;;;;;;8.60;3.42;;;12.90;99.90;;;;;;5012940;28;20144;-59
2022/03/18 11:20:52;;;;;;;7.72;2.85;;;13.00;99.90;;;;;;5013326;28;20107;-59
2022/03/18 11:23:22;;;;;;;4.90;3.15;;;13.10;99.90;;;;;;5003019;28;20148;-60
2022/03/18 11:25:56;;;;;;;3.67;2.63;;;13.20;99.90;;;;;;5020313;28;20060;-60
2022/03/18 11:28:23;;;;;;;6.38;2.83;;;13.30;99.90;;;;;;5003684;28;20140;-60
2022/03/18 11:31:09;;;;;;;4.65;2.50;;;13.40;99.90;;;;;;5020896;28;20247;-60
2022/03/18 11:33:39;;;;;;;4.15;2.50;;;13.70;99.90;;;;;;5020351;28;20468;-60
2022/03/18 11:36:06;;;;;;;5.57;2.80;;;13.90;99.90;;;;;;5007163;28;20137;-60
2022/03/18 11:39:02;;;;;;;6.35;2.97;;;14.20;99.90;;;;;;5001468;28;20443;-60
2022/03/18 11:41:55;;;;;;;3.50;2.30;;;14.30;99.90;;;;;;5000466;28;20080;-60
2022/03/18 11:44:41;;;;;;;5.30;2.15;;;14.30;99.90;;;;;;5000211;28;20057;-59
2022/03/18 11:47:23;;;;;;;5.50;2.00;;;14.70;99.90;;;;;;5001054;28;20132;-60
2022/03/18 11:50:40;;;;;;;4.32;2.38;;;15.00;99.90;;;;;;5000129;28;20061;-61
2022/03/18 11:53:10;;;;;;;5.32;2.83;;;15.20;99.90;;;;;;5000336;28;20054;-60
2022/03/18 11:55:37;;;;;;;3.63;2.25;;;15.50;99.90;;;;;;4999194;28;20114;-60
2022/03/18 11:58:28;;;;;;;8.38;2.92;;;15.70;99.90;;;;;;5001146;28;20486;-60
2022/03/18 12:00:55;;;;;;;3.85;2.25;;;15.50;99.90;;;;;;4998908;28;20058;-60
2022/03/18 12:03:28;;;;;;;8.48;3.35;;;15.70;99.90;;;;;;5008478;28;20050;-60
2022/03/18 12:05:57;;;;;;;5.43;2.65;;;15.90;99.90;;;;;;5017272;28;20251;-61
2022/03/18 12:08:50;;;;;;;4.72;2.40;;;16.10;99.90;;;;;;5012614;28;20136;-61
2022/03/18 12:11:43;;;;;;;4.32;2.70;;;15.70;99.90;;;;;;5000535;28;20085;-60
2022/03/18 12:14:10;;;;;;;4.40;2.53;;;15.30;99.90;;;;;;5011345;28;20213;-60
2022/03/18 12:16:37;;;;;;;9.23;2.97;;;15.40;99.90;;;;;;5000363;28;20057;-61
2022/03/18 12:19:23;;;;;;;4.43;2.13;;;15.60;99.90;;;;;;5009299;28;20375;-60
2022/03/18 12:21:50;;;;;;;3.67;1.80;;;15.80;99.90;;;;;;5019272;28;20096;-60
2022/03/18 12:24:17;;;;;;;2.67;1.67;;;16.10;99.90;;;;;;5016023;28;20540;-61
2022/03/18 12:26:44;;;;;;;6.40;2.33;;;16.60;99.90;;;;;;5021081;28;20083;-61
2022/03/18 12:29:17;;;;;;;5.43;2.28;;;16.90;99.90;;;;;;5002663;28;20369;-60
2022/03/18 12:31:43;;;;;;;2.20;1.20;;;16.80;99.90;;;;;;5008099;28;20112;-61
2022/03/18 12:34:14;;;;;;;2.33;1.20;;;17.00;99.90;;;;;;5000034;28;20058;-60
2022/03/18 12:36:43;;;;;;;3.40;1.25;;;17.20;99.90;;;;;;4998545;28;20046;-60
2022/03/18 12:39:11;;;;;;;3.03;1.58;;;17.30;99.90;;;;;;4999201;28;20439;-60
2022/03/18 12:41:40;;;;;;;2.05;1.10;;;17.40;99.90;;;;;;5001278;28;20058;-60
2022/03/18 12:44:29;;;;;;;3.13;1.38;;;17.60;99.90;;;;;;5000919;28;20141;-60
2022/03/18 12:46:56;;;;;;;3.40;1.08;;;17.70;99.90;;;;;;5000463;28;20054;-61
2022/03/18 12:49:31;;;;;;;3.60;1.35;;;17.70;99.90;;;;;;4981239;28;20057;-60
2022/03/18 12:51:58;;;;;;;4.00;1.58;;;17.70;99.90;;;;;;5000373;28;20199;-61
2022/03/18 12:54:24;;;;;;;2.47;1.30;;;17.90;99.90;;;;;;4999819;28;20141;-61
2022/03/18 12:56:51;;;;;;;3.33;0.95;;;18.00;99.90;;;;;;5000600;28;20157;-61
2022/03/18 12:59:18;;;;;;;2.00;1.30;;;18.00;99.90;;;;;;5000212;28;20096;-61
2022/03/18 13:01:57;;;;;;;1.50;0.90;;;18.00;99.90;;;;;;5000062;28;20155;-61
2022/03/18 13:04:24;;;;;;;1.73;0.93;;;18.30;99.90;;;;;;4999262;28;20046;-61
2022/03/18 13:06:52;;;;;;;3.20;1.52;;;18.70;99.90;;;;;;5011321;28;20046;-61
2022/03/18 13:09:19;;;;;;;3.50;1.60;;;18.70;99.90;;;;;;4999535;28;20054;-61
2022/03/18 13:11:46;;;;;;;3.38;1.55;;;18.60;99.90;;;;;;5004181;28;20465;-60
2022/03/18 13:14:13;;;;;;;2.28;1.02;;;18.70;99.90;;;;;;5019091;28;20049;-61
2022/03/18 13:16:44;;;;;;;2.85;1.00;;;18.80;99.90;;;;;;5019667;28;20088;-61
2022/03/18 13:19:11;;;;;;;2.83;1.25;;;18.70;99.90;;;;;;5018396;28;20247;-60
2022/03/18 13:21:50;;;;;;;3.70;1.30;;;19.00;99.90;;;;;;5019323;28;20215;-61
2022/03/18 13:24:16;;;;;;;2.90;1.20;;;18.80;99.90;;;;;;5010613;28;20149;-60